Time;durP1;ratioP1;P1;durP2;ratioP2;P2;SDS_P1;SDS_P2;PMS_P1;PMS_P2;Temp;Humidity;BMP_temperature;BMP_pressure;BME280_temperature;BME280_humidity;BME280_pressure;Samples;Min_cycle;Max_cycle;Signal;HPM_P1;HPM_P2
2021/04/20 00:00:17;;;;;;;28.60;22.80;;;;;;;6.19;100.00;96023.13;1045104;28;20013;-63
2021/04/20 00:00:47;;;;;;;30.27;23.77;;;;;;;6.21;100.00;96021.06;1045102;28;20056;-64
2021/04/20 00:01:17;;;;;;;30.77;22.73;;;;;;;6.20;100.00;96020.25;1045039;28;20091;-64
2021/04/20 00:01:48;;;;;;;28.10;22.73;;;;;;;6.21;100.00;96018.41;1044682;28;20048;-63
2021/04/20 00:02:18;;;;;;;29.33;22.50;;;;;;;6.21;100.00;96016.53;1044438;28;20016;-64
2021/04/20 00:02:49;;;;;;;30.20;23.83;;;;;;;6.19;100.00;96012.50;1044552;28;20017;-64
2021/04/20 00:03:19;;;;;;;30.20;23.00;;;;;;;6.23;100.00;96019.75;1044724;28;20032;-64
2021/04/20 00:03:49;;;;;;;29.23;22.70;;;;;;;6.28;100.00;96027.00;1045011;28;20017;-63
2021/04/20 00:04:20;;;;;;;32.23;23.43;;;;;;;6.29;100.00;96017.19;1044885;28;20048;-63
2021/04/20 00:04:50;;;;;;;28.30;23.27;;;;;;;6.33;100.00;96020.97;1044698;28;20063;-64
2021/04/20 00:05:21;;;;;;;31.27;23.57;;;;;;;6.35;100.00;96016.25;1044701;28;20021;-63
2021/04/20 00:05:51;;;;;;;28.93;22.30;;;;;;;6.37;100.00;96016.78;1044769;28;20025;-64
2021/04/20 00:06:22;;;;;;;28.73;21.97;;;;;;;6.40;100.00;96018.97;1044652;28;20032;-64
2021/04/20 00:06:52;;;;;;;29.80;22.80;;;;;;;6.39;100.00;96022.66;1045062;28;20037;-64
2021/04/20 00:07:22;;;;;;;30.53;23.43;;;;;;;6.38;100.00;96021.03;1044485;28;20059;-64
2021/04/20 00:07:53;;;;;;;26.67;22.00;;;;;;;6.36;100.00;96018.63;1044792;28;20449;-64
2021/04/20 00:08:23;;;;;;;31.67;23.90;;;;;;;6.35;100.00;96013.59;1044761;28;20505;-64
2021/04/20 00:08:54;;;;;;;29.27;23.67;;;;;;;6.34;100.00;96011.94;1044681;28;20033;-64
2021/04/20 00:09:24;;;;;;;30.57;23.17;;;;;;;6.31;100.00;96013.25;1045065;28;20025;-63
2021/04/20 00:09:54;;;;;;;29.10;23.40;;;;;;;6.31;100.00;96012.44;1045101;28;20105;-63
2021/04/20 00:10:25;;;;;;;32.00;23.97;;;;;;;6.33;100.00;96015.66;1044933;28;20055;-64
2021/04/20 00:10:55;;;;;;;29.07;22.53;;;;;;;6.36;100.00;96021.28;1044951;28;20087;-65
2021/04/20 00:11:26;;;;;;;30.80;23.50;;;;;;;6.39;100.00;96012.03;1045049;28;20029;-63
2021/04/20 00:11:56;;;;;;;30.90;23.47;;;;;;;6.39;100.00;96020.78;1045046;28;20025;-63
2021/04/20 00:12:26;;;;;;;29.50;22.63;;;;;;;6.41;100.00;96015.25;1044674;28;20056;-63
2021/04/20 00:12:57;;;;;;;30.60;22.97;;;;;;;6.35;100.00;96016.25;1044972;28;20040;-63
2021/04/20 00:13:27;;;;;;;30.97;23.07;;;;;;;6.33;100.00;96005.84;1045057;28;20025;-64
2021/04/20 00:13:58;;;;;;;28.63;23.63;;;;;;;6.32;100.00;96009.53;1045047;28;20079;-64
2021/04/20 00:14:28;;;;;;;29.97;23.43;;;;;;;6.30;100.00;96014.31;1044900;28;20557;-64
2021/04/20 00:14:59;;;;;;;31.77;24.17;;;;;;;6.28;100.00;96015.56;1044996;28;20025;-63
2021/04/20 00:15:32;;;;;;;31.50;24.17;;;;;;;6.28;100.00;96016.38;1045017;28;20029;-63
2021/04/20 00:16:03;;;;;;;31.95;24.17;;;;;;;6.24;100.00;96013.44;1044752;28;20024;-63
2021/04/20 00:16:33;;;;;;;32.50;25.53;;;;;;;6.22;100.00;96010.19;1044658;28;20021;-63
2021/04/20 00:17:05;;;;;;;31.73;25.00;;;;;;;6.18;100.00;96011.72;1044686;28;20040;-64
2021/04/20 00:17:36;;;;;;;32.33;24.08;;;;;;;6.14;100.00;96007.97;1044661;28;20025;-63
2021/04/20 00:18:06;;;;;;;32.47;23.93;;;;;;;6.15;100.00;96011.41;1044574;28;20515;-63
2021/04/20 00:18:37;;;;;;;31.43;24.20;;;;;;;6.15;100.00;96012.22;1044578;28;20492;-63
2021/04/20 00:19:07;;;;;;;32.50;24.63;;;;;;;6.16;100.00;96016.47;1044715;28;20009;-63
2021/04/20 00:19:38;;;;;;;34.87;25.13;;;;;;;6.14;100.00;96007.13;1044741;28;20374;-63
2021/04/20 00:20:10;;;;;;;33.37;24.23;;;;;;;6.18;100.00;96005.59;1045024;28;20386;-63
2021/04/20 00:20:40;;;;;;;37.97;25.30;;;;;;;6.18;100.00;96010.91;1044584;28;20029;-63
2021/04/20 00:21:11;;;;;;;31.90;24.60;;;;;;;6.20;100.00;96006.19;1045018;28;20036;-63
2021/04/20 00:21:41;;;;;;;35.20;24.43;;;;;;;6.21;100.00;96011.25;1044974;28;20029;-63
2021/04/20 00:22:12;;;;;;;31.00;24.67;;;;;;;6.16;100.00;96011.16;1045027;28;20076;-63
2021/04/20 00:22:42;;;;;;;33.40;24.63;;;;;;;6.16;100.00;96008.50;1044906;28;20033;-63
2021/04/20 00:23:13;;;;;;;34.37;25.20;;;;;;;6.11;100.00;96015.59;1045006;28;20082;-63
2021/04/20 00:23:43;;;;;;;33.63;26.27;;;;;;;6.12;100.00;96007.38;1040466;28;20042;-63
2021/04/20 00:24:13;;;;;;;32.73;25.50;;;;;;;6.12;100.00;96015.34;1040539;28;20022;-63
2021/04/20 00:24:44;;;;;;;34.83;25.10;;;;;;;6.12;100.00;96009.22;1040416;28;20029;-63
2021/04/20 00:25:15;;;;;;;34.80;26.73;;;;;;;6.10;100.00;96000.72;1040533;28;20093;-63
2021/04/20 00:25:45;;;;;;;33.67;25.67;;;;;;;6.10;100.00;96014.78;1045008;28;20057;-64
2021/04/20 00:26:15;;;;;;;35.93;27.63;;;;;;;6.08;100.00;96005.44;1045044;28;20032;-63
2021/04/20 00:26:46;;;;;;;31.80;24.97;;;;;;;6.10;100.00;96009.47;1048756;28;20040;-63
2021/04/20 00:27:16;;;;;;;34.70;25.60;;;;;;;6.11;100.00;96015.59;1048745;28;20032;-63
2021/04/20 00:27:47;;;;;;;34.60;25.17;;;;;;;6.08;100.00;96006.25;1048850;28;20479;-63
2021/04/20 00:28:27;;;;;;;32.97;25.47;;;;;;;6.07;100.00;96009.94;1048525;28;20501;-63
2021/04/20 00:28:57;;;;;;;34.60;25.73;;;;;;;6.09;100.00;96005.22;1044977;28;20029;-63
2021/04/20 00:29:28;;;;;;;34.83;25.63;;;;;;;6.09;100.00;96007.88;1044837;28;20029;-64
2021/04/20 00:29:58;;;;;;;33.00;25.53;;;;;;;6.10;100.00;95998.88;1045040;28;20036;-63
2021/04/20 00:30:29;;;;;;;36.37;26.93;;;;;;;6.11;100.00;95999.66;1044935;28;20025;-63
2021/04/20 00:30:59;;;;;;;33.00;25.80;;;;;;;6.12;100.00;95995.97;1044659;28;20017;-63
2021/04/20 00:31:29;;;;;;;33.23;25.47;;;;;;;6.09;100.00;95999.09;1044948;28;20025;-63
2021/04/20 00:32:00;;;;;;;33.93;26.30;;;;;;;6.12;100.00;95999.41;1044992;28;20021;-63
2021/04/20 00:32:30;;;;;;;33.37;25.60;;;;;;;6.13;100.00;96002.88;1044944;28;20127;-63
2021/04/20 00:33:01;;;;;;;33.93;25.43;;;;;;;6.16;100.00;96005.06;1044609;28;20040;-63
2021/04/20 00:33:31;;;;;;;31.77;25.00;;;;;;;6.10;100.00;96000.72;1044637;28;20025;-63
2021/04/20 00:34:01;;;;;;;32.97;25.83;;;;;;;6.07;100.00;95999.34;1044666;28;20021;-63
2021/04/20 00:34:32;;;;;;;34.87;26.00;;;;;;;6.08;100.00;96002.78;1044625;28;20050;-63
2021/04/20 00:35:03;;;;;;;35.53;26.83;;;;;;;6.07;100.00;96001.97;1045001;28;20074;-63
2021/04/20 00:35:33;;;;;;;36.13;26.88;;;;;;;6.01;100.00;96000.31;1044900;28;20106;-63
2021/04/20 00:36:04;;;;;;;33.10;26.57;;;;;;;6.00;100.00;95996.03;1044960;28;20024;-63
2021/04/20 00:36:35;;;;;;;33.08;25.85;;;;;;;5.97;100.00;95992.00;1044965;28;20016;-63
2021/04/20 00:37:05;;;;;;;37.57;26.10;;;;;;;5.97;100.00;95999.16;1044971;28;20029;-63
2021/04/20 00:37:35;;;;;;;35.50;27.60;;;;;;;5.95;100.00;96002.06;1044520;28;20021;-63
2021/04/20 00:38:06;;;;;;;35.03;26.70;;;;;;;5.94;100.00;95997.81;1040491;28;20051;-63
2021/04/20 00:38:37;;;;;;;37.83;26.93;;;;;;;5.94;100.00;95994.34;1040519;28;20094;-63
2021/04/20 00:39:07;;;;;;;33.73;26.43;;;;;;;5.92;100.00;96005.19;1036436;28;20403;-63
2021/04/20 00:39:38;;;;;;;33.00;26.20;;;;;;;5.93;100.00;95993.53;1040516;28;20497;-63
2021/04/20 00:40:09;;;;;;;35.38;26.60;;;;;;;5.93;100.00;95995.38;1044589;28;20047;-63
2021/04/20 00:40:40;;;;;;;34.90;26.95;;;;;;;5.91;100.00;96000.94;1040386;28;20036;-63
2021/04/20 00:41:11;;;;;;;37.27;27.63;;;;;;;5.91;100.00;95998.28;1044531;28;20431;-63
2021/04/20 00:41:42;;;;;;;35.53;27.38;;;;;;;5.90;100.00;95994.00;1044492;28;20060;-63
2021/04/20 00:42:12;;;;;;;35.30;27.37;;;;;;;5.93;100.00;95995.38;1044618;28;20037;-63
2021/04/20 00:42:56;;;;;;;35.83;28.53;;;;;;;5.91;100.00;95994.78;1044635;28;20029;-63
2021/04/20 00:43:36;;;;;;;34.42;27.23;;;;;;;5.89;100.00;95994.25;1044818;28;20078;-62
2021/04/20 00:44:07;;;;;;;39.00;28.33;;;;;;;5.86;100.00;95995.50;1044864;28;20028;-63
2021/04/20 00:44:37;;;;;;;35.73;27.30;;;;;;;5.86;100.00;96000.00;1044917;28;20047;-63
2021/04/20 00:45:08;;;;;;;36.13;27.40;;;;;;;5.86;100.00;95992.84;1044903;28;20017;-63
2021/04/20 00:45:39;;;;;;;35.78;27.15;;;;;;;5.86;100.00;96002.66;1044781;28;20033;-63
2021/04/20 00:46:11;;;;;;;37.57;27.67;;;;;;;5.87;100.00;95998.97;1044927;28;20468;-63
2021/04/20 00:46:41;;;;;;;35.65;27.38;;;;;;;5.88;100.00;96003.22;1044821;28;20078;-63
2021/04/20 00:47:12;;;;;;;34.10;27.03;;;;;;;5.89;100.00;95999.56;1044784;28;20079;-63
2021/04/20 00:47:42;;;;;;;34.87;26.63;;;;;;;5.89;100.00;95995.03;1044678;28;20033;-63
2021/04/20 00:48:13;;;;;;;37.80;27.20;;;;;;;5.91;100.00;95992.97;1044926;28;20025;-63
2021/04/20 00:48:43;;;;;;;35.37;27.17;;;;;;;5.92;100.00;95991.13;1044830;28;20087;-63
2021/04/20 00:49:14;;;;;;;36.83;27.83;;;;;;;5.93;100.00;95998.84;1044937;28;20021;-63
2021/04/20 00:49:44;;;;;;;40.57;27.80;;;;;;;5.93;100.00;95998.84;1044862;28;20455;-63
2021/04/20 00:50:15;;;;;;;34.37;27.40;;;;;;;5.93;100.00;95996.19;1044992;28;20021;-63
2021/04/20 00:50:46;;;;;;;38.30;27.40;;;;;;;5.89;100.00;95992.38;1044524;28;20021;-63
2021/04/20 00:51:17;;;;;;;36.37;26.93;;;;;;;5.93;100.00;95998.03;1044977;28;20466;-63
2021/04/20 00:51:49;;;;;;;36.22;27.55;;;;;;;5.95;100.00;96001.28;1044775;28;20021;-63
2021/04/20 00:52:20;;;;;;;35.70;27.05;;;;;;;5.95;100.00;96002.06;1044573;28;20025;-63
2021/04/20 00:52:50;;;;;;;37.80;28.27;;;;;;;5.97;100.00;95996.50;1044554;28;20022;-63
2021/04/20 00:53:21;;;;;;;38.67;27.40;;;;;;;5.95;100.00;95990.66;1044590;28;20129;-63
2021/04/20 00:53:51;;;;;;;38.57;29.10;;;;;;;5.94;100.00;96000.47;1040510;28;20032;-63
2021/04/20 00:54:22;;;;;;;36.87;28.47;;;;;;;5.95;100.00;95996.75;1040372;28;20021;-63
2021/04/20 00:54:52;;;;;;;36.57;27.77;;;;;;;5.97;100.00;95996.50;1040401;28;20018;-63
2021/04/20 00:55:23;;;;;;;35.93;26.83;;;;;;;5.99;100.00;95997.91;1036388;28;20076;-63
2021/04/20 00:55:53;;;;;;;34.53;27.60;;;;;;;6.04;100.00;95999.00;1040364;28;20111;-63
2021/04/20 00:56:23;;;;;;;36.90;28.43;;;;;;;6.05;100.00;95995.31;1040326;28;20091;-63
2021/04/20 00:56:54;;;;;;;39.43;28.87;;;;;;;6.04;100.00;95997.19;1040466;28;20014;-63
2021/04/20 00:57:24;;;;;;;37.20;28.13;;;;;;;6.04;100.00;95999.84;1044646;28;20025;-64
2021/04/20 00:57:55;;;;;;;36.33;27.57;;;;;;;6.04;100.00;95994.53;1044429;28;20051;-63
2021/04/20 00:58:25;;;;;;;35.20;27.43;;;;;;;6.04;100.00;95994.53;1044815;28;20051;-64
2021/04/20 00:58:55;;;;;;;34.67;27.33;;;;;;;6.05;100.00;95998.78;1044786;28;20040;-64
2021/04/20 00:59:26;;;;;;;36.00;27.93;;;;;;;6.01;100.00;95997.66;1044883;28;20430;-64
2021/04/20 00:59:56;;;;;;;37.30;28.13;;;;;;;6.02;100.00;95990.50;1044828;28;20020;-65
2021/04/20 01:00:31;;;;;;;38.47;29.13;;;;;;;6.02;100.00;96001.09;1044782;28;20017;-64
2021/04/20 01:01:01;;;;;;;38.50;28.15;;;;;;;6.00;100.00;95996.03;1044505;28;20105;-63
2021/04/20 01:01:32;;;;;;;39.13;29.53;;;;;;;5.99;100.00;95987.28;1044583;28;20032;-64
2021/04/20 01:02:03;;;;;;;40.83;29.10;;;;;;;5.98;100.00;95992.81;1039976;28;20018;-64
2021/04/20 01:02:33;;;;;;;38.67;28.40;;;;;;;5.96;100.00;95993.06;1039995;28;20711;-64
2021/04/20 01:03:03;;;;;;;38.43;29.30;;;;;;;6.00;100.00;95988.09;1032283;28;20029;-64
2021/04/20 01:03:34;;;;;;;37.40;29.43;;;;;;;6.01;100.00;95986.22;1032330;28;20026;-64
2021/04/20 01:04:04;;;;;;;38.27;28.83;;;;;;;6.01;100.00;95983.59;1032180;28;20026;-64
2021/04/20 01:04:35;;;;;;;37.33;29.30;;;;;;;6.05;100.00;95993.47;1032349;28;20019;-64
2021/04/20 01:05:07;;;;;;;37.37;28.50;;;;;;;6.07;100.00;95993.22;1040442;28;20083;-64
2021/04/20 01:05:38;;;;;;;42.17;30.40;;;;;;;6.09;100.00;95985.81;1044595;28;20024;-64
2021/04/20 01:06:09;;;;;;;39.37;30.10;;;;;;;6.13;100.00;95990.41;1044738;28;20401;-64
2021/04/20 01:06:40;;;;;;;37.40;29.40;;;;;;;6.16;100.00;95989.94;1044472;28;20028;-64
2021/04/20 01:07:10;;;;;;;37.15;28.45;;;;;;;6.17;100.00;95993.38;1044453;28;20100;-64
2021/04/20 01:07:41;;;;;;;37.00;28.87;;;;;;;6.18;100.00;95987.81;1040389;28;20030;-64
2021/04/20 01:08:15;;;;;;;38.00;28.40;;;;;;;6.21;100.00;95992.66;1040598;28;20017;-64
2021/04/20 01:08:45;;;;;;;35.97;29.25;;;;;;;6.23;100.00;95987.91;1040309;28;20037;-63
2021/04/20 01:09:19;;;;;;;35.87;29.00;;;;;;;6.22;100.00;95988.97;1032731;28;20528;-63
2021/04/20 01:09:49;;;;;;;37.72;29.35;;;;;;;6.19;100.00;95984.16;1032272;28;20534;-63
2021/04/20 01:10:20;;;;;;;36.40;28.53;;;;;;;6.23;100.00;95984.44;1028688;28;20077;-63
2021/04/20 01:10:53;;;;;;;39.27;28.60;;;;;;;6.18;100.00;95992.34;1032329;28;20022;-63
2021/04/20 01:11:23;;;;;;;34.20;27.27;;;;;;;6.22;100.00;95986.31;1036692;28;20511;-63
2021/04/20 01:11:54;;;;;;;37.60;28.90;;;;;;;6.19;100.00;95976.19;1036802;28;20034;-63
2021/04/20 01:12:24;;;;;;;38.43;29.97;;;;;;;6.24;100.00;95988.72;1040352;28;20509;-63
2021/04/20 01:12:55;;;;;;;36.63;27.37;;;;;;;6.24;100.00;95978.09;1036226;28;20021;-63
2021/04/20 01:13:28;;;;;;;37.00;28.27;;;;;;;6.27;100.00;95982.13;1028308;28;20027;-63
2021/04/20 01:14:04;;;;;;;37.05;28.38;;;;;;;6.31;100.00;95985.91;1028178;28;20077;-63
2021/04/20 01:14:36;;;;;;;36.15;26.90;;;;;;;6.29;100.00;95985.31;1029405;28;20138;-63
2021/04/20 01:15:08;;;;;;;35.60;27.73;;;;;;;6.29;100.00;95987.97;1035010;28;20415;-63
2021/04/20 01:15:42;;;;;;;40.35;28.45;;;;;;;6.27;100.00;95982.94;1041545;28;20051;-63
2021/04/20 01:16:13;;;;;;;36.35;27.75;;;;;;;6.30;100.00;95982.44;1040258;28;20079;-63
2021/04/20 01:16:44;;;;;;;37.67;28.25;;;;;;;6.26;100.00;95986.63;1040350;28;20044;-63
2021/04/20 01:17:14;;;;;;;37.17;28.90;;;;;;;6.27;100.00;95985.59;1032172;28;20649;-63
2021/04/20 01:17:44;;;;;;;37.30;28.50;;;;;;;6.23;100.00;95987.09;1032727;28;20030;-64
2021/04/20 01:18:26;;;;;;;35.83;27.60;;;;;;;6.27;100.00;95987.44;1036234;28;20022;-64
2021/04/20 01:18:56;;;;;;;35.63;28.13;;;;;;;6.28;100.00;95992.50;1039165;28;20026;-62
2021/04/20 01:19:27;;;;;;;33.93;27.03;;;;;;;6.31;100.00;95983.25;1040261;28;20029;-64
2021/04/20 01:19:58;;;;;;;38.87;29.83;;;;;;;6.31;100.00;95986.72;1032719;28;20034;-63
2021/04/20 01:20:29;;;;;;;36.55;27.35;;;;;;;6.30;100.00;95992.28;1032976;28;20099;-63
2021/04/20 01:21:07;;;;;;;38.30;27.63;;;;;;;6.27;100.00;95982.94;1028955;28;20100;-63
2021/04/20 01:21:37;;;;;;;35.47;27.45;;;;;;;6.28;100.00;95987.19;1034723;28;20022;-63
2021/04/20 01:22:08;;;;;;;34.27;25.67;;;;;;;6.29;100.00;95987.97;1040356;28;20030;-63
2021/04/20 01:22:40;;;;;;;39.03;28.80;;;;;;;6.25;100.00;95985.03;1037325;28;20517;-63
2021/04/20 01:23:12;;;;;;;35.65;27.33;;;;;;;6.18;100.00;95981.72;1040333;28;20394;-63
2021/04/20 01:24:14;;;;;;;35.83;27.27;;;;;;;6.19;100.00;95984.16;1036173;28;20459;-63
2021/04/20 01:24:44;;;;;;;39.15;27.90;;;;;;;6.19;100.00;95985.97;1040258;28;20076;-63
2021/04/20 01:25:15;;;;;;;37.10;27.93;;;;;;;6.17;100.00;95982.78;1036226;28;20271;-62
2021/04/20 01:25:46;;;;;;;36.22;28.17;;;;;;;6.10;100.00;95982.13;1036199;28;20500;-63
2021/04/20 01:26:18;;;;;;;39.95;29.48;;;;;;;6.07;100.00;95980.75;1036385;28;20045;-62
2021/04/20 01:26:48;;;;;;;41.50;30.00;;;;;;;6.03;100.00;95979.63;1036596;28;20069;-63
2021/04/20 01:27:19;;;;;;;40.27;29.43;;;;;;;6.03;100.00;95984.13;1040250;28;20044;-63
2021/04/20 01:27:49;;;;;;;40.67;31.10;;;;;;;5.97;100.00;95983.25;1036225;28;20021;-63
2021/04/20 01:28:20;;;;;;;40.73;31.13;;;;;;;5.93;100.00;95990.06;1036230;28;20407;-63
2021/04/20 01:28:50;;;;;;;39.77;31.30;;;;;;;5.91;100.00;95984.19;1040395;28;20585;-63
2021/04/20 01:29:21;;;;;;;43.47;31.57;;;;;;;5.87;100.00;95993.66;1040180;28;20482;-63
2021/04/20 01:29:56;;;;;;;41.60;31.05;;;;;;;5.87;100.00;95986.50;1040376;28;20032;-64
2021/04/20 01:30:26;;;;;;;39.20;29.80;;;;;;;5.87;100.00;95981.19;1040274;28;20364;-63
2021/04/20 01:30:57;;;;;;;43.67;31.53;;;;;;;5.85;100.00;95980.66;1035800;28;20026;-63
2021/04/20 01:31:29;;;;;;;39.58;30.42;;;;;;;5.86;100.00;95989.41;1036055;28;20057;-63
2021/04/20 01:31:59;;;;;;;40.03;30.25;;;;;;;5.84;100.00;95988.84;1037048;28;20026;-64
2021/04/20 01:32:30;;;;;;;41.37;30.27;;;;;;;5.83;100.00;95982.72;1044406;28;20036;-63
2021/04/20 01:33:03;;;;;;;38.90;30.23;;;;;;;5.82;100.00;95986.41;1044700;28;20522;-63
2021/04/20 01:33:33;;;;;;;44.17;33.20;;;;;;;5.80;100.00;95993.03;1044584;28;20470;-62
2021/04/20 01:34:04;;;;;;;40.87;31.50;;;;;;;5.79;100.00;95984.25;1044710;28;20028;-62
2021/04/20 01:34:34;;;;;;;40.87;30.97;;;;;;;5.78;100.00;95989.78;1044641;28;20055;-63
2021/04/20 01:35:09;;;;;;;41.70;31.37;;;;;;;5.78;100.00;95987.13;1044421;28;20035;-62
2021/04/20 01:35:39;;;;;;;41.92;31.63;;;;;;;5.77;100.00;95982.88;1040118;28;20033;-63
2021/04/20 01:36:11;;;;;;;40.67;31.27;;;;;;;5.77;100.00;95986.34;1036141;28;20034;-64
2021/04/20 01:36:41;;;;;;;41.63;31.60;;;;;;;5.77;100.00;95991.63;1036995;28;20022;-63
2021/04/20 01:37:12;;;;;;;45.43;33.13;;;;;;;5.74;100.00;95995.59;1041003;28;20064;-63
2021/04/20 01:37:42;;;;;;;43.57;31.37;;;;;;;5.76;100.00;95982.06;1044310;28;20040;-63
2021/04/20 01:38:12;;;;;;;42.10;31.50;;;;;;;5.76;100.00;95992.69;1040151;28;20048;-62
2021/04/20 01:38:46;;;;;;;44.03;32.93;;;;;;;5.74;100.00;95990.28;1040265;28;20053;-63
2021/04/20 01:39:16;;;;;;;46.72;32.42;;;;;;;5.75;100.00;95983.13;1040252;28;20114;-63
2021/04/20 01:39:47;;;;;;;42.30;32.27;;;;;;;5.75;100.00;95983.13;1040670;28;20045;-63
2021/04/20 01:40:17;;;;;;;44.57;31.53;;;;;;;5.75;100.00;95985.78;1044363;28;20029;-63
2021/04/20 01:40:48;;;;;;;42.20;31.97;;;;;;;5.78;100.00;95987.13;1040292;28;20443;-63
2021/04/20 01:41:19;;;;;;;42.23;33.00;;;;;;;5.81;100.00;95984.81;1036130;28;20033;-62
2021/04/20 01:41:49;;;;;;;44.47;32.85;;;;;;;5.84;100.00;95983.56;1027951;28;20019;-62
2021/04/20 01:42:20;;;;;;;43.53;32.57;;;;;;;5.88;100.00;95988.09;1032233;28;20027;-64
2021/04/20 01:42:50;;;;;;;39.97;32.27;;;;;;;5.90;100.00;95990.53;1032241;28;20089;-63
2021/04/20 01:43:20;;;;;;;40.17;32.23;;;;;;;5.91;100.00;95985.00;1036206;28;20084;-63
2021/04/20 01:43:52;;;;;;;40.27;30.37;;;;;;;5.93;100.00;95987.41;1036266;28;20041;-63
2021/04/20 01:44:23;;;;;;;40.45;31.25;;;;;;;5.95;100.00;95990.66;1036337;28;20034;-63
2021/04/20 01:44:53;;;;;;;42.47;32.20;;;;;;;5.97;100.00;95983.25;1032105;28;20034;-63
2021/04/20 01:45:23;;;;;;;41.33;30.23;;;;;;;6.00;100.00;95990.75;1028151;28;20070;-63
2021/04/20 01:45:54;;;;;;;43.13;32.47;;;;;;;6.01;100.00;95983.59;1032071;28;20022;-63
2021/04/20 01:46:25;;;;;;;41.43;30.67;;;;;;;6.03;100.00;95987.59;1027991;28;20098;-63
2021/04/20 01:46:55;;;;;;;40.83;30.63;;;;;;;5.99;100.00;95992.59;1028397;28;20385;-62
2021/04/20 01:47:26;;;;;;;38.47;28.63;;;;;;;6.04;100.00;95989.22;1036175;28;20026;-62
2021/04/20 01:47:58;;;;;;;39.53;30.50;;;;;;;6.02;100.00;95985.19;1040426;28;20502;-63
2021/04/20 01:48:28;;;;;;;40.03;30.88;;;;;;;6.02;100.00;95985.97;1044333;28;20741;-63
2021/04/20 01:48:59;;;;;;;39.77;30.60;;;;;;;6.06;100.00;96000.38;1044101;28;20056;-64
2021/04/20 01:49:29;;;;;;;40.10;30.50;;;;;;;6.07;100.00;95993.22;1044698;28;20448;-63
2021/04/20 01:50:01;;;;;;;40.67;31.13;;;;;;;6.08;100.00;95992.97;1044685;28;20040;-63
2021/04/20 01:50:31;;;;;;;40.88;30.90;;;;;;;6.08;100.00;95992.16;1044576;28;20327;-63
2021/04/20 01:51:02;;;;;;;40.97;31.10;;;;;;;6.06;100.00;96000.38;1044579;28;20033;-63
2021/04/20 01:51:32;;;;;;;44.15;31.25;;;;;;;6.01;100.00;95997.66;1044718;28;20482;-63
2021/04/20 01:52:03;;;;;;;42.47;32.07;;;;;;;6.01;100.00;96000.31;1048465;28;20031;-63
2021/04/20 01:52:33;;;;;;;44.40;32.27;;;;;;;5.96;100.00;96001.03;1048432;28;20013;-64
2021/04/20 01:53:04;;;;;;;43.60;31.77;;;;;;;5.99;100.00;95997.09;1040113;28;20018;-63
2021/04/20 01:53:34;;;;;;;42.50;31.67;;;;;;;6.00;100.00;95998.69;1041308;28;20017;-64
2021/04/20 01:54:05;;;;;;;47.90;34.87;;;;;;;5.93;100.00;95998.84;1037745;28;20078;-64
2021/04/20 01:54:35;;;;;;;42.87;33.30;;;;;;;5.98;100.00;95998.91;1033881;28;20054;-64
2021/04/20 01:55:06;;;;;;;44.73;32.43;;;;;;;6.00;100.00;96004.00;1041733;28;20052;-64
2021/04/20 01:55:36;;;;;;;44.07;32.27;;;;;;;6.00;100.00;95996.03;1037974;28;20014;-64
2021/04/20 01:56:08;;;;;;;45.03;32.23;;;;;;;6.05;100.00;96003.28;1042422;28;20029;-64
2021/04/20 01:56:38;;;;;;;43.40;33.05;;;;;;;6.08;100.00;95994.81;1044297;28;20071;-63
2021/04/20 01:57:09;;;;;;;43.67;34.47;;;;;;;6.11;100.00;95995.16;1040444;28;20033;-63
2021/04/20 01:57:41;;;;;;;43.75;32.72;;;;;;;6.14;100.00;95994.69;1036052;28;20483;-63
2021/04/20 01:58:12;;;;;;;43.63;33.15;;;;;;;6.14;100.00;95991.19;1032158;28;20475;-63
2021/04/20 01:58:43;;;;;;;43.00;33.23;;;;;;;6.14;100.00;96000.00;1031997;28;20030;-63
2021/04/20 01:59:14;;;;;;;47.38;33.28;;;;;;;6.16;100.00;96000.53;1036802;28;20463;-63
2021/04/20 01:59:45;;;;;;;42.67;32.83;;;;;;;6.18;100.00;96000.28;1040524;28;20052;-63
2021/04/20 02:00:16;;;;;;;45.57;33.60;;;;;;;6.16;100.00;95992.59;1040217;28;20025;-63
2021/04/20 02:00:47;;;;;;;44.20;33.42;;;;;;;6.20;100.00;95995.56;1040109;28;20128;-64
2021/04/20 02:01:22;;;;;;;47.93;34.40;;;;;;;6.16;100.00;95989.94;1040430;28;20495;-63
2021/04/20 02:01:53;;;;;;;45.05;32.72;;;;;;;6.18;100.00;95992.34;1036954;28;20010;-63
2021/04/20 02:02:23;;;;;;;43.73;32.97;;;;;;;6.16;100.00;95997.91;1032077;28;20455;-64
2021/04/20 02:02:54;;;;;;;46.23;34.13;;;;;;;6.19;100.00;95991.28;1031864;28;20011;-63
2021/04/20 02:03:27;;;;;;;44.07;33.47;;;;;;;6.18;100.00;96001.09;1036149;28;20045;-63
2021/04/20 02:03:58;;;;;;;46.78;33.58;;;;;;;6.20;100.00;95988.41;1035973;28;20016;-63
2021/04/20 02:04:28;;;;;;;44.17;32.43;;;;;;;6.18;100.00;96000.28;1028015;28;20019;-63
2021/04/20 02:04:59;;;;;;;44.07;32.70;;;;;;;6.15;100.00;95983.03;1023916;29;20078;-63
2021/04/20 02:05:29;;;;;;;46.37;34.00;;;;;;;6.18;100.00;95995.78;1024098;28;20474;-63
2021/04/20 02:06:00;;;;;;;48.50;34.30;;;;;;;6.18;100.00;95989.69;1024108;28;20106;-63
2021/04/20 02:06:30;;;;;;;45.40;33.53;;;;;;;6.07;100.00;95994.03;1028303;28;20427;-63
2021/04/20 02:07:01;;;;;;;45.73;33.23;;;;;;;5.99;100.00;96003.19;1028045;28;20026;-63
2021/04/20 02:07:31;;;;;;;45.23;32.97;;;;;;;5.96;100.00;95992.25;1024287;28;20023;-63
2021/04/20 02:08:03;;;;;;;45.90;32.93;;;;;;;5.96;100.00;95992.25;1032004;28;20077;-63
2021/04/20 02:08:33;;;;;;;43.25;33.35;;;;;;;5.95;100.00;95996.75;1032214;28;20135;-63
2021/04/20 02:09:07;;;;;;;47.53;34.63;;;;;;;5.92;100.00;95991.94;1036274;28;20077;-63
2021/04/20 02:09:39;;;;;;;48.38;35.05;;;;;;;5.92;100.00;95997.22;1044222;28;20009;-63
2021/04/20 02:10:11;;;;;;;48.38;35.97;;;;;;;5.92;100.00;95988.47;1044364;28;20138;-64
2021/04/20 02:10:41;;;;;;;48.10;35.78;;;;;;;5.93;100.00;95996.19;1044284;28;20358;-63
2021/04/20 02:11:13;;;;;;;46.93;35.57;;;;;;;5.97;100.00;95991.22;1044216;28;20048;-63
2021/04/20 02:11:43;;;;;;;48.50;36.35;;;;;;;5.93;100.00;95990.88;1040046;28;20038;-63
2021/04/20 02:12:14;;;;;;;49.17;35.67;;;;;;;5.91;100.00;95990.31;1036135;28;20037;-63
2021/04/20 02:12:44;;;;;;;49.50;36.37;;;;;;;5.88;100.00;95988.09;1036119;28;20133;-63
2021/04/20 02:13:15;;;;;;;49.27;36.37;;;;;;;5.85;100.00;95991.25;1035989;28;20026;-64
2021/04/20 02:13:45;;;;;;;52.63;36.80;;;;;;;5.84;100.00;95983.56;1035687;28;20029;-64
2021/04/20 02:14:16;;;;;;;56.00;38.57;;;;;;;5.77;100.00;95986.34;1035525;28;20022;-63
2021/04/20 02:14:46;;;;;;;50.47;37.43;;;;;;;5.77;100.00;95988.19;1031901;28;20051;-63
2021/04/20 02:15:17;;;;;;;52.00;39.07;;;;;;;5.78;100.00;95995.09;1023976;29;20092;-63
2021/04/20 02:15:47;;;;;;;50.20;37.90;;;;;;;5.74;100.00;95982.31;1024239;28;20084;-63
2021/04/20 02:16:18;;;;;;;50.33;37.77;;;;;;;5.74;100.00;95989.47;1028197;28;20023;-63
2021/04/20 02:16:48;;;;;;;51.27;38.17;;;;;;;5.74;100.00;95989.47;1028118;28;20026;-64
2021/04/20 02:17:20;;;;;;;50.83;38.03;;;;;;;5.70;100.00;95991.00;1031960;28;20029;-63
2021/04/20 02:17:50;;;;;;;52.17;39.25;;;;;;;5.68;100.00;95985.94;1028298;28;20034;-63
2021/04/20 02:18:23;;;;;;;52.20;37.70;;;;;;;5.63;100.00;95985.84;1024144;28;20062;-63
2021/04/20 02:19:00;;;;;;;52.25;38.35;;;;;;;5.64;100.00;95986.66;1025760;28;20023;-63
2021/04/20 02:19:30;;;;;;;51.72;38.83;;;;;;;5.63;100.00;95988.50;1029080;28;20433;-63
2021/04/20 02:20:04;;;;;;;51.20;38.93;;;;;;;5.65;100.00;95985.59;1034386;28;20065;-63
2021/04/20 02:20:35;;;;;;;52.55;39.50;;;;;;;5.63;100.00;95991.16;1040071;28;20062;-63
2021/04/20 02:21:05;;;;;;;51.78;39.25;;;;;;;5.61;100.00;95990.56;1040724;28;20017;-63
2021/04/20 02:21:36;;;;;;;53.47;41.00;;;;;;;5.59;100.00;95990.00;1035962;28;20033;-63
2021/04/20 02:22:06;;;;;;;56.40;39.10;;;;;;;5.58;100.00;95987.59;1031915;28;20022;-63
2021/04/20 02:22:42;;;;;;;56.47;38.13;;;;;;;5.57;100.00;95983.31;1023956;29;20058;-63
2021/04/20 02:23:13;;;;;;;51.88;39.72;;;;;;;5.55;100.00;95986.22;1024564;28;20492;-64